createdAt,value
2022-10-01T00:02:17.064Z,9.41
2022-10-01T00:04:44.942Z,9.35
2022-10-01T00:07:15.224Z,9.37
2022-10-01T00:09:43.204Z,9.32
2022-10-01T00:12:11.062Z,9.41
2022-10-01T00:14:40.323Z,9.39
2022-10-01T00:17:08.216Z,9.29
2022-10-01T00:19:36.038Z,9.30
2022-10-01T00:22:04.005Z,9.17
2022-10-01T00:24:36.545Z,9.18
2022-10-01T00:27:04.732Z,9.19
2022-10-01T00:29:32.619Z,9.20
2022-10-01T00:32:02.283Z,9.10
2022-10-01T00:34:30.178Z,9.14
2022-10-01T00:36:58.150Z,9.13
2022-10-01T00:39:26.088Z,9.15
2022-10-01T00:41:54.651Z,9.07
2022-10-01T00:44:34.122Z,9.04
2022-10-01T00:47:22.289Z,9.05
2022-10-01T00:49:59.206Z,9.05
2022-10-01T00:52:32.769Z,9.09
2022-10-01T00:55:08.797Z,9.04
2022-10-01T00:57:36.717Z,9.13
2022-10-01T01:00:10.853Z,9.05
2022-10-01T01:02:40.233Z,9.09
2022-10-01T01:05:13.498Z,9.04
2022-10-01T01:07:46.815Z,9.03
2022-10-01T01:10:20.242Z,9.01
2022-10-01T01:13:12.151Z,8.95
2022-10-01T01:15:49.948Z,8.99
2022-10-01T01:18:29.917Z,8.99
2022-10-01T01:21:17.004Z,8.92
2022-10-01T01:24:40.295Z,8.90
2022-10-01T01:27:31.282Z,8.91
2022-10-01T01:30:06.598Z,8.92
2022-10-01T01:32:47.747Z,8.96
2022-10-01T01:35:28.050Z,8.97
2022-10-01T01:38:03.160Z,8.90
2022-10-01T01:40:37.483Z,9.04
2022-10-01T01:43:11.947Z,8.98
2022-10-01T01:45:43.242Z,8.97
2022-10-01T01:48:12.945Z,9.01
2022-10-01T01:50:48.999Z,8.93
2022-10-01T01:53:16.895Z,8.96
2022-10-01T01:55:49.170Z,8.86
2022-10-01T01:58:18.648Z,8.92
2022-10-01T02:00:53.355Z,8.90
2022-10-01T02:03:23.433Z,8.87
2022-10-01T02:06:10.341Z,9.01
2022-10-01T02:08:42.610Z,8.98
2022-10-01T02:11:24.938Z,8.89
2022-10-01T02:14:09.155Z,8.85
2022-10-01T02:16:49.957Z,8.80
2022-10-01T02:19:29.703Z,8.80
2022-10-01T02:22:01.189Z,8.80
2022-10-01T02:24:39.430Z,8.79
2022-10-01T02:27:14.674Z,8.78
2022-10-01T02:29:46.248Z,8.73
2022-10-01T02:32:19.288Z,8.77
2022-10-01T02:34:51.970Z,8.77
2022-10-01T02:37:25.521Z,8.69
2022-10-01T02:39:57.347Z,8.71
2022-10-01T02:42:31.863Z,8.75
2022-10-01T02:45:04.491Z,8.67
2022-10-01T02:47:43.609Z,8.67
2022-10-01T02:50:14.056Z,8.67
2022-10-01T02:52:48.377Z,8.74
2022-10-01T02:55:21.622Z,8.77
2022-10-01T02:57:48.516Z,8.72
2022-10-01T03:00:21.225Z,8.78
2022-10-01T03:02:51.446Z,8.73
2022-10-01T03:05:20.398Z,8.77
2022-10-01T03:07:49.716Z,8.75
2022-10-01T03:10:18.082Z,8.73
2022-10-01T03:12:46.831Z,8.77
2022-10-01T03:15:19.207Z,8.74
2022-10-01T03:17:47.538Z,8.77
2022-10-01T03:20:16.850Z,8.82
2022-10-01T03:22:46.922Z,8.84
2022-10-01T03:25:15.629Z,8.86
2022-10-01T03:27:43.569Z,8.87
2022-10-01T03:30:12.621Z,8.89
2022-10-01T03:32:40.700Z,8.84
2022-10-01T03:35:09.910Z,8.85
2022-10-01T03:37:39.081Z,8.86
2022-10-01T03:40:08.576Z,8.89
2022-10-01T03:42:36.350Z,8.87
2022-10-01T03:45:04.635Z,8.91
2022-10-01T03:47:32.388Z,8.87
2022-10-01T03:50:00.198Z,8.92
2022-10-01T03:52:28.044Z,8.70
2022-10-01T03:54:57.157Z,8.93
2022-10-01T03:57:25.075Z,8.90
2022-10-01T03:59:52.807Z,8.88
2022-10-01T04:02:21.475Z,8.96
2022-10-01T04:04:49.338Z,8.99
2022-10-01T04:07:17.306Z,8.92
2022-10-01T04:09:45.062Z,8.96
2022-10-01T04:12:14.270Z,8.31
2022-10-01T04:14:42.043Z,8.92
2022-10-01T04:17:09.840Z,8.92
2022-10-01T04:19:37.697Z,8.90
2022-10-01T04:22:05.544Z,8.95
2022-10-01T04:24:33.376Z,8.91
2022-10-01T04:27:01.166Z,8.95
2022-10-01T04:29:30.340Z,8.82
2022-10-01T04:31:58.207Z,8.98
2022-10-01T04:34:46.414Z,8.96
2022-10-01T04:37:14.193Z,8.95
2022-10-01T04:39:42.012Z,8.97
2022-10-01T04:42:09.794Z,8.91
2022-10-01T04:44:39.002Z,8.98
2022-10-01T04:47:08.318Z,8.92
2022-10-01T04:49:36.993Z,8.95
2022-10-01T04:52:06.045Z,8.91
2022-10-01T04:54:33.848Z,8.89
2022-10-01T04:57:01.742Z,8.98
2022-10-01T04:59:29.520Z,8.97
2022-10-01T05:01:58.718Z,8.95
2022-10-01T05:04:27.279Z,9.06
2022-10-01T05:06:55.080Z,9.00
2022-10-01T05:09:22.867Z,9.08
2022-10-01T05:11:52.045Z,9.02
2022-10-01T05:14:21.233Z,9.04
2022-10-01T05:16:49.141Z,9.12
2022-10-01T05:19:18.341Z,9.03
2022-10-01T05:21:46.201Z,9.05
2022-10-01T05:24:14.204Z,9.15
2022-10-01T05:26:42.009Z,9.18
2022-10-01T05:29:10.068Z,9.16
2022-10-01T05:31:38.519Z,9.18
2022-10-01T05:34:06.577Z,9.20
2022-10-01T05:36:35.721Z,9.20
2022-10-01T05:39:03.697Z,9.20
2022-10-01T05:41:32.551Z,9.29
2022-10-01T05:44:00.654Z,9.33
2022-10-01T05:46:28.481Z,9.40
2022-10-01T05:48:56.242Z,9.41
2022-10-01T05:51:24.215Z,9.43
2022-10-01T05:53:55.338Z,9.43
2022-10-01T05:56:24.212Z,9.39
2022-10-01T05:58:52.071Z,9.44
2022-10-01T06:01:19.848Z,9.58
2022-10-01T06:03:51.307Z,9.63
2022-10-01T06:06:23.251Z,9.70
2022-10-01T06:08:53.100Z,9.85
2022-10-01T06:11:22.522Z,9.87
2022-10-01T06:13:51.251Z,9.86
2022-10-01T06:16:20.776Z,9.92
2022-10-01T06:18:57.066Z,9.86
2022-10-01T06:21:25.662Z,9.96
2022-10-01T06:23:55.722Z,9.99
2022-10-01T06:26:24.344Z,10.07
2022-10-01T06:28:52.773Z,9.96
2022-10-01T06:31:21.330Z,10.10
2022-10-01T06:33:49.204Z,10.08
2022-10-01T06:36:17.051Z,10.32
2022-10-01T06:38:45.003Z,10.30
2022-10-01T06:41:14.372Z,10.32
2022-10-01T06:43:42.219Z,10.27
2022-10-01T06:46:10.621Z,10.29
2022-10-01T06:48:38.627Z,10.24
2022-10-01T06:51:07.001Z,10.37
2022-10-01T06:53:34.840Z,10.41
2022-10-01T06:56:07.573Z,10.60
2022-10-01T06:58:37.346Z,10.56
2022-10-01T07:01:05.031Z,10.45
2022-10-01T07:03:33.290Z,10.52
2022-10-01T07:06:07.992Z,10.59
2022-10-01T07:08:35.854Z,10.59
2022-10-01T07:11:05.023Z,10.51
2022-10-01T07:13:33.290Z,10.68
2022-10-01T07:16:04.792Z,10.77
2022-10-01T07:18:32.735Z,10.78
2022-10-01T07:21:01.572Z,10.82
2022-10-01T07:23:29.417Z,10.88
2022-10-01T07:25:57.243Z,10.95
2022-10-01T07:28:26.219Z,11.00
2022-10-01T07:31:07.142Z,11.16
2022-10-01T07:33:35.288Z,11.15
2022-10-01T07:36:05.356Z,11.32
2022-10-01T07:38:34.400Z,11.36
2022-10-01T07:41:04.555Z,11.45
2022-10-01T07:43:34.568Z,11.49
2022-10-01T07:46:05.094Z,11.59
2022-10-01T07:48:33.152Z,11.60
2022-10-01T07:51:01.097Z,11.77
2022-10-01T07:53:29.038Z,11.85
2022-10-01T07:55:57.934Z,11.92
2022-10-01T07:58:26.528Z,11.95
2022-10-01T08:00:58.377Z,12.06
2022-10-01T08:03:27.923Z,12.01
2022-10-01T08:05:56.737Z,12.09
2022-10-01T08:08:24.538Z,12.37
2022-10-01T08:10:52.891Z,12.38
2022-10-01T08:13:24.746Z,12.27
2022-10-01T08:15:54.903Z,12.24
2022-10-01T08:18:24.444Z,12.57
2022-10-01T08:20:53.669Z,12.71
2022-10-01T08:23:22.182Z,12.59
2022-10-01T08:25:50.085Z,12.57
2022-10-01T08:28:18.325Z,12.69
2022-10-01T08:30:46.211Z,12.73
2022-10-01T08:33:14.907Z,12.61
2022-10-01T08:35:44.467Z,12.51
2022-10-01T08:38:14.199Z,12.62
2022-10-01T08:40:50.926Z,12.52
2022-10-01T08:43:36.406Z,12.70
2022-10-01T08:46:11.966Z,12.79
2022-10-01T08:48:57.560Z,12.98
2022-10-01T08:51:34.005Z,13.01
2022-10-01T08:54:22.133Z,13.01
2022-10-01T08:56:50.141Z,13.00
2022-10-01T08:59:39.023Z,13.02
2022-10-01T09:02:22.353Z,13.15
2022-10-01T09:05:00.340Z,13.22
2022-10-01T09:07:52.706Z,13.15
2022-10-01T09:10:42.204Z,13.22
2022-10-01T09:13:32.588Z,13.47
2022-10-01T09:16:12.818Z,13.64
2022-10-01T09:18:56.832Z,13.85
2022-10-01T09:21:44.543Z,14.02
2022-10-01T09:24:16.682Z,13.99
2022-10-01T09:26:49.756Z,13.78
2022-10-01T09:29:28.418Z,13.93
2022-10-01T09:31:58.270Z,13.72
2022-10-01T09:34:34.992Z,13.52
2022-10-01T09:37:14.924Z,13.55
2022-10-01T09:39:55.668Z,13.48
2022-10-01T09:42:30.600Z,13.42
2022-10-01T09:44:59.261Z,13.57
2022-10-01T09:47:28.110Z,13.23
2022-10-01T09:49:57.028Z,13.08
2022-10-01T09:52:34.621Z,13.06
2022-10-01T09:55:13.761Z,12.83
2022-10-01T09:57:51.598Z,12.71
2022-10-01T10:00:25.496Z,12.76
2022-10-01T10:02:56.734Z,12.65
2022-10-01T10:05:28.259Z,12.69
2022-10-01T10:07:59.977Z,12.47
2022-10-01T10:10:35.406Z,12.52
2022-10-01T10:13:21.519Z,12.38
2022-10-01T10:15:54.147Z,12.34
2022-10-01T10:18:34.605Z,12.24
2022-10-01T10:21:07.971Z,12.15
2022-10-01T10:23:36.034Z,12.00
2022-10-01T10:26:07.515Z,11.88
2022-10-01T10:28:44.652Z,11.71
2022-10-01T10:31:18.155Z,11.62
2022-10-01T10:33:54.385Z,11.56
2022-10-01T10:36:29.404Z,11.50
2022-10-01T10:38:59.916Z,11.54
2022-10-01T10:41:30.451Z,11.54
2022-10-01T10:44:04.849Z,11.51
2022-10-01T10:46:36.663Z,11.52
2022-10-01T10:49:20.350Z,11.53
2022-10-01T10:51:51.321Z,11.34
2022-10-01T10:54:23.178Z,11.33
2022-10-01T10:57:00.637Z,11.11
2022-10-01T10:59:32.781Z,11.50
2022-10-01T11:02:05.469Z,11.59
2022-10-01T11:04:43.727Z,11.58
2022-10-01T11:07:21.637Z,11.64
2022-10-01T11:10:17.234Z,11.52
2022-10-01T11:13:06.817Z,11.40
2022-10-01T11:16:02.801Z,11.55
2022-10-01T11:18:58.430Z,11.52
2022-10-01T11:21:51.620Z,11.53
2022-10-01T11:24:46.054Z,11.56
2022-10-01T11:27:26.388Z,11.74
2022-10-01T11:30:06.225Z,11.75
2022-10-01T11:32:40.047Z,11.62
2022-10-01T11:35:28.436Z,11.54
2022-10-01T11:38:30.847Z,11.65
2022-10-01T11:41:09.592Z,11.39
2022-10-01T11:43:44.263Z,11.61
2022-10-01T11:46:19.971Z,11.65
2022-10-01T11:48:57.249Z,11.65
2022-10-01T11:51:33.112Z,11.48
2022-10-01T11:54:10.116Z,11.41
2022-10-01T11:57:04.759Z,11.46
2022-10-01T11:59:41.748Z,11.58
2022-10-01T12:02:22.580Z,11.50
2022-10-01T12:04:59.339Z,11.48
2022-10-01T12:07:38.280Z,11.64
2022-10-01T12:10:29.358Z,11.64
2022-10-01T12:13:07.338Z,11.53
2022-10-01T12:15:46.083Z,11.70
2022-10-01T12:18:21.850Z,11.62
2022-10-01T12:20:55.650Z,11.69
2022-10-01T12:23:29.962Z,11.57
2022-10-01T12:26:17.377Z,11.55
2022-10-01T12:29:00.545Z,11.50
2022-10-01T12:31:37.114Z,11.40
2022-10-01T12:34:22.423Z,11.38
2022-10-01T12:37:12.792Z,11.43
2022-10-01T12:39:59.058Z,11.34
2022-10-01T12:42:53.163Z,11.35
2022-10-01T12:45:39.906Z,11.23
2022-10-01T12:48:21.232Z,11.34
2022-10-01T12:51:03.111Z,11.33
2022-10-01T12:53:46.206Z,11.39
2022-10-01T12:56:27.612Z,11.32
2022-10-01T12:59:28.467Z,11.41
2022-10-01T13:02:22.660Z,11.42
2022-10-01T13:05:11.135Z,11.52
2022-10-01T13:07:58.872Z,11.59
2022-10-01T13:10:53.762Z,11.48
2022-10-01T13:13:27.045Z,11.56
2022-10-01T13:16:06.289Z,11.54
2022-10-01T13:18:51.690Z,11.57
2022-10-01T13:21:36.083Z,11.58
2022-10-01T13:24:14.898Z,11.72
2022-10-01T13:26:55.947Z,11.80
2022-10-01T13:29:42.887Z,11.70
2022-10-01T13:32:28.930Z,11.55
2022-10-01T13:34:58.818Z,11.71
2022-10-01T13:37:36.035Z,11.81
2022-10-01T13:40:06.940Z,11.95
2022-10-01T13:42:46.883Z,11.95
2022-10-01T13:45:28.292Z,12.11
2022-10-01T13:48:09.206Z,12.02
2022-10-01T13:50:39.759Z,12.05
2022-10-01T13:53:17.165Z,12.06
2022-10-01T13:55:48.812Z,11.96
2022-10-01T13:58:33.390Z,12.06
2022-10-01T14:01:05.440Z,11.99
2022-10-01T14:03:49.463Z,11.96
2022-10-01T14:06:25.610Z,12.06
2022-10-01T14:09:01.401Z,12.42
2022-10-01T14:11:52.958Z,12.42
2022-10-01T14:14:50.269Z,12.30
2022-10-01T14:17:22.833Z,12.17
2022-10-01T14:19:51.802Z,12.01
2022-10-01T14:22:44.375Z,12.17
2022-10-01T14:25:30.737Z,12.20
2022-10-01T14:28:23.070Z,12.15
2022-10-01T14:31:03.622Z,12.13
2022-10-01T14:34:09.567Z,12.18
2022-10-01T14:36:44.308Z,12.24
2022-10-01T14:39:18.801Z,12.17
2022-10-01T14:41:49.578Z,12.09
2022-10-01T14:44:28.205Z,12.23
2022-10-01T14:47:00.467Z,12.19
2022-10-01T14:49:31.129Z,12.11
2022-10-01T14:52:04.301Z,12.28
2022-10-01T14:54:43.998Z,12.23
2022-10-01T14:57:19.318Z,12.20
2022-10-01T14:59:50.147Z,12.26
2022-10-01T15:02:23.026Z,12.19
2022-10-01T15:04:53.605Z,12.30
2022-10-01T15:07:21.839Z,12.33
2022-10-01T15:09:51.160Z,12.32
2022-10-01T15:12:23.597Z,12.28
2022-10-01T15:14:55.488Z,12.36
2022-10-01T15:17:28.205Z,12.47
2022-10-01T15:19:58.667Z,12.53
2022-10-01T15:22:31.063Z,12.51
2022-10-01T15:25:02.582Z,12.31
2022-10-01T15:27:30.897Z,12.47
2022-10-01T15:30:00.286Z,12.48
2022-10-01T15:32:30.270Z,12.54
2022-10-01T15:35:01.117Z,12.56
2022-10-01T15:37:34.324Z,12.37
2022-10-01T15:40:04.898Z,12.51
2022-10-01T15:42:35.761Z,12.60
2022-10-01T15:45:27.876Z,12.70
2022-10-01T15:47:58.065Z,12.73
2022-10-01T15:50:29.009Z,12.67
2022-10-01T15:53:03.837Z,12.69
2022-10-01T15:55:43.752Z,12.60
2022-10-01T15:58:18.580Z,12.54
2022-10-01T16:01:00.958Z,12.55
2022-10-01T16:03:34.693Z,12.50
2022-10-01T16:06:05.291Z,12.41
2022-10-01T16:08:40.686Z,12.28
2022-10-01T16:11:23.595Z,12.30
2022-10-01T16:13:54.797Z,12.17
2022-10-01T16:16:28.922Z,12.22
2022-10-01T16:19:24.691Z,12.21
2022-10-01T16:22:15.668Z,12.14
2022-10-01T16:24:46.717Z,12.09
2022-10-01T16:27:19.093Z,12.11
2022-10-01T16:30:04.188Z,12.11
2022-10-01T16:32:33.113Z,12.07
2022-10-01T16:35:23.181Z,11.97
2022-10-01T16:37:53.439Z,12.03
2022-10-01T16:40:25.386Z,12.03
2022-10-01T16:42:54.193Z,11.99
2022-10-01T16:45:25.202Z,11.96
2022-10-01T16:47:54.452Z,11.91
2022-10-01T16:50:25.055Z,12.00
2022-10-01T16:52:54.126Z,11.95
2022-10-01T16:55:26.568Z,11.92
2022-10-01T16:57:55.813Z,11.90
2022-10-01T17:00:26.166Z,11.88
2022-10-01T17:02:54.680Z,11.89
2022-10-01T17:05:28.287Z,11.88
2022-10-01T17:08:01.229Z,11.95
2022-10-01T17:10:33.653Z,11.93
2022-10-01T17:13:02.296Z,12.05
2022-10-01T17:15:30.326Z,12.03
2022-10-01T17:17:59.918Z,11.92
2022-10-01T17:20:31.536Z,12.00
2022-10-01T17:22:59.909Z,12.06
2022-10-01T17:25:34.175Z,12.05
2022-10-01T17:28:04.666Z,12.11
2022-10-01T17:30:33.386Z,12.07
2022-10-01T17:33:02.624Z,12.18
2022-10-01T17:35:31.848Z,12.16
2022-10-01T17:38:00.220Z,12.01
2022-10-01T17:40:28.206Z,12.19
2022-10-01T17:42:55.972Z,12.22
2022-10-01T17:45:23.757Z,12.23
2022-10-01T17:47:51.639Z,12.17
2022-10-01T17:50:20.031Z,12.06
2022-10-01T17:52:49.541Z,12.19
2022-10-01T17:55:19.868Z,12.20
2022-10-01T17:57:47.790Z,12.15
2022-10-01T18:00:15.659Z,12.23
2022-10-01T18:02:44.414Z,12.15
2022-10-01T18:05:14.754Z,12.33
2022-10-01T18:07:43.594Z,12.34
2022-10-01T18:10:14.696Z,12.76
2022-10-01T18:12:42.689Z,12.85
2022-10-01T18:15:11.187Z,12.65
2022-10-01T18:17:43.502Z,12.68
2022-10-01T18:20:20.053Z,12.81
2022-10-01T18:22:48.111Z,12.83
2022-10-01T18:25:19.461Z,12.72
2022-10-01T18:27:50.095Z,12.72
2022-10-01T18:30:20.255Z,12.85
2022-10-01T18:32:56.862Z,12.78
2022-10-01T18:35:33.357Z,12.60
2022-10-01T18:38:12.417Z,12.76
2022-10-01T18:40:46.352Z,12.61
2022-10-01T18:43:20.863Z,12.61
2022-10-01T18:46:11.803Z,12.66
2022-10-01T18:49:02.682Z,12.73
2022-10-01T18:51:52.713Z,12.68
2022-10-01T18:54:53.442Z,12.65
2022-10-01T18:57:46.211Z,12.67
2022-10-01T19:00:17.870Z,12.54
2022-10-01T19:03:40.008Z,12.61
2022-10-01T19:06:31.225Z,12.68
2022-10-01T19:09:19.287Z,12.79
2022-10-01T19:12:02.827Z,12.37
2022-10-01T19:14:55.867Z,12.67
2022-10-01T19:17:48.339Z,12.63
2022-10-01T19:20:34.676Z,12.69
2022-10-01T19:23:21.786Z,12.77
2022-10-01T19:25:55.454Z,12.60
2022-10-01T19:28:47.333Z,12.72
2022-10-01T19:31:29.685Z,12.69
2022-10-01T19:34:08.995Z,12.61
2022-10-01T19:36:45.029Z,12.73
2022-10-01T19:39:23.201Z,12.63
2022-10-01T19:42:00.182Z,12.62
2022-10-01T19:44:34.338Z,12.64
2022-10-01T19:47:24.660Z,12.61
2022-10-01T19:49:58.164Z,12.50
2022-10-01T19:52:33.995Z,12.57
2022-10-01T19:55:02.242Z,12.41
2022-10-01T19:57:34.783Z,12.37
2022-10-01T20:00:11.521Z,12.32
2022-10-01T20:02:52.247Z,12.36
2022-10-01T20:05:29.446Z,12.26
2022-10-01T20:08:06.625Z,12.10
2022-10-01T20:10:42.624Z,12.13
2022-10-01T20:13:29.302Z,12.03
2022-10-01T20:16:11.471Z,12.09
2022-10-01T20:18:50.124Z,12.05
2022-10-01T20:21:38.580Z,11.97
2022-10-01T20:24:30.129Z,11.90
2022-10-01T20:27:16.402Z,11.88
2022-10-01T20:29:54.938Z,11.86
2022-10-01T20:32:30.498Z,11.79
2022-10-01T20:35:23.762Z,11.79
2022-10-01T20:38:06.844Z,11.70
2022-10-01T20:40:45.468Z,11.58
2022-10-01T20:43:20.464Z,11.64
2022-10-01T20:45:54.088Z,11.55
2022-10-01T20:48:28.601Z,11.61
2022-10-01T20:51:08.248Z,11.60
2022-10-01T20:53:44.937Z,11.57
2022-10-01T20:56:18.292Z,11.50
2022-10-01T20:58:53.439Z,11.59
2022-10-01T21:01:24.557Z,11.37
2022-10-01T21:04:02.390Z,11.49
2022-10-01T21:06:40.568Z,11.33
2022-10-01T21:09:19.066Z,11.34
2022-10-01T21:11:59.461Z,11.25
2022-10-01T21:14:36.904Z,11.28
2022-10-01T21:17:23.117Z,11.31
2022-10-01T21:20:14.875Z,11.20
2022-10-01T21:23:06.278Z,11.24
2022-10-01T21:25:55.029Z,11.32
2022-10-01T21:28:48.384Z,11.26
2022-10-01T21:31:35.433Z,11.22
2022-10-01T21:34:12.583Z,11.25
2022-10-01T21:36:56.871Z,11.21
2022-10-01T21:39:33.847Z,11.24
2022-10-01T21:42:16.367Z,11.27
2022-10-01T21:45:20.767Z,11.12
2022-10-01T21:48:06.944Z,11.22
2022-10-01T21:50:52.927Z,11.15
2022-10-01T21:53:49.998Z,11.01
2022-10-01T21:56:38.780Z,11.22
2022-10-01T21:59:23.454Z,11.21
2022-10-01T22:02:06.673Z,11.25
2022-10-01T22:04:48.386Z,11.27
2022-10-01T22:07:28.056Z,11.16
2022-10-01T22:10:09.033Z,11.18
2022-10-01T22:12:43.767Z,11.19
2022-10-01T22:15:24.840Z,11.21
2022-10-01T22:17:55.945Z,11.15
2022-10-01T22:20:30.146Z,11.10
2022-10-01T22:23:02.323Z,11.15
2022-10-01T22:25:35.778Z,11.13
2022-10-01T22:28:18.525Z,11.01
2022-10-01T22:30:50.730Z,11.01
2022-10-01T22:33:25.568Z,11.12
2022-10-01T22:36:02.952Z,11.03
2022-10-01T22:38:39.878Z,11.09
2022-10-01T22:41:16.955Z,11.11
2022-10-01T22:43:46.557Z,11.09
2022-10-01T22:46:57.003Z,11.08
2022-10-01T22:49:41.139Z,10.93
2022-10-01T22:52:27.083Z,10.97
2022-10-01T22:55:11.400Z,11.15
2022-10-01T22:58:01.742Z,11.08
2022-10-01T23:00:40.453Z,10.99
2022-10-01T23:03:26.000Z,11.07
2022-10-01T23:06:07.200Z,11.07
2022-10-01T23:08:51.869Z,11.02
2022-10-01T23:11:28.819Z,11.03
2022-10-01T23:14:12.503Z,10.98
2022-10-01T23:16:53.643Z,10.96
2022-10-01T23:19:43.372Z,10.94
2022-10-01T23:22:33.240Z,10.98
2022-10-01T23:25:19.302Z,10.94
2022-10-01T23:28:08.312Z,10.81
2022-10-01T23:30:57.837Z,10.89
2022-10-01T23:33:55.164Z,10.96
2022-10-01T23:36:42.303Z,10.96
2022-10-01T23:39:41.663Z,10.89
2022-10-01T23:42:27.026Z,10.99
2022-10-01T23:45:07.348Z,10.90
2022-10-01T23:47:43.460Z,10.87
2022-10-01T23:50:23.814Z,10.91
2022-10-01T23:53:04.385Z,10.97
2022-10-01T23:56:03.384Z,10.97
2022-10-01T23:58:44.461Z,11.15
